createdAt,value
2022-12-05T00:03:50.805Z,17.00
2022-12-05T00:08:54.328Z,17.50
2022-12-05T00:13:57.708Z,17.20
2022-12-05T00:19:01.184Z,20.40
2022-12-05T00:24:04.611Z,18.50
2022-12-05T00:29:07.969Z,17.90
2022-12-05T00:34:11.311Z,17.60
2022-12-05T00:39:15.348Z,17.10
2022-12-05T00:44:18.820Z,17.60
2022-12-05T00:49:22.207Z,16.00
2022-12-05T00:54:25.590Z,16.70
2022-12-05T00:59:29.085Z,17.30
2022-12-05T01:04:32.446Z,16.20
2022-12-05T01:09:35.902Z,15.80
2022-12-05T01:14:39.248Z,15.90
2022-12-05T01:19:42.625Z,15.10
2022-12-05T01:24:45.983Z,14.80
2022-12-05T01:29:49.380Z,16.00
2022-12-05T01:34:52.813Z,13.80
2022-12-05T01:39:56.437Z,15.00
2022-12-05T01:45:00.028Z,14.80
2022-12-05T01:50:03.476Z,16.10
2022-12-05T01:55:06.831Z,13.50
2022-12-05T02:00:10.562Z,13.20
2022-12-05T02:05:14.003Z,14.50
2022-12-05T02:10:17.377Z,13.70
2022-12-05T02:15:20.799Z,15.90
2022-12-05T02:20:24.159Z,14.40
2022-12-05T02:25:27.555Z,13.90
2022-12-05T02:30:30.899Z,12.30
2022-12-05T02:35:34.268Z,14.30
2022-12-05T02:40:37.645Z,12.90
2022-12-05T02:45:41.140Z,13.00
2022-12-05T02:50:44.602Z,11.90
2022-12-05T02:55:47.957Z,12.80
2022-12-05T03:00:51.356Z,11.00
2022-12-05T03:05:54.758Z,11.90
2022-12-05T03:10:58.156Z,11.50
2022-12-05T03:16:01.605Z,12.70
2022-12-05T03:21:04.960Z,10.70
2022-12-05T03:26:12.131Z,11.50
2022-12-05T03:31:15.531Z,11.40
2022-12-05T03:36:18.954Z,11.80
2022-12-05T03:41:22.458Z,11.50
2022-12-05T03:46:25.848Z,10.10
2022-12-05T03:51:29.276Z,11.70
2022-12-05T03:56:32.651Z,9.90
2022-12-05T04:01:36.128Z,13.50
2022-12-05T04:06:39.609Z,11.20
2022-12-05T04:11:43.024Z,12.10
2022-12-05T04:17:04.830Z,11.20
2022-12-05T04:22:08.232Z,10.70
2022-12-05T04:27:11.661Z,12.30
2022-12-05T04:32:15.232Z,11.70
2022-12-05T04:37:19.566Z,10.40
2022-12-05T04:42:22.902Z,11.40
2022-12-05T04:47:26.291Z,10.50
2022-12-05T04:52:29.694Z,11.30
2022-12-05T04:57:33.078Z,10.70
2022-12-05T05:02:36.534Z,10.80
2022-12-05T05:07:40.004Z,11.00
2022-12-05T05:12:43.468Z,9.80
2022-12-05T05:17:46.872Z,10.30
2022-12-05T05:22:50.259Z,10.40
2022-12-05T05:27:53.680Z,12.00
2022-12-05T05:32:57.092Z,10.70
2022-12-05T05:38:00.503Z,11.10
2022-12-05T05:43:03.848Z,14.50
2022-12-05T05:48:07.320Z,9.50
2022-12-05T05:53:10.671Z,9.70
2022-12-05T05:58:14.055Z,11.50
2022-12-05T06:03:17.605Z,8.50
2022-12-05T06:08:21.118Z,12.00
2022-12-05T06:13:24.611Z,10.80
2022-12-05T06:18:27.966Z,9.90
2022-12-05T06:23:31.335Z,9.80
2022-12-05T06:28:34.772Z,11.90
2022-12-05T06:33:38.182Z,12.10
2022-12-05T06:38:42.434Z,10.80
2022-12-05T06:43:46.062Z,12.20
2022-12-05T06:48:49.458Z,14.30
2022-12-05T06:53:52.824Z,11.30
2022-12-05T06:58:56.614Z,14.10
2022-12-05T07:04:00.126Z,11.90
2022-12-05T07:09:03.515Z,13.50
2022-12-05T07:14:14.664Z,18.30
2022-12-05T07:19:22.652Z,13.80
2022-12-05T07:24:26.113Z,13.90
2022-12-05T07:29:29.538Z,12.70
2022-12-05T07:34:33.011Z,12.70
2022-12-05T07:39:36.395Z,11.60
2022-12-05T07:44:39.780Z,13.30
2022-12-05T07:49:43.151Z,12.20
2022-12-05T07:54:46.549Z,14.90
2022-12-05T07:59:50.126Z,13.60
2022-12-05T08:04:53.507Z,12.40
2022-12-05T08:09:57.028Z,14.60
2022-12-05T08:15:00.683Z,14.60
2022-12-05T08:20:04.125Z,12.60
2022-12-05T08:25:07.615Z,13.80
2022-12-05T08:30:10.998Z,12.30
2022-12-05T08:35:14.441Z,15.50
2022-12-05T08:40:17.867Z,12.90
2022-12-05T08:45:21.268Z,11.50
2022-12-05T08:50:24.769Z,14.00
2022-12-05T08:55:28.261Z,13.70
2022-12-05T09:00:31.664Z,15.30
2022-12-05T09:05:35.039Z,14.40
2022-12-05T09:10:38.468Z,15.20
2022-12-05T09:15:42.125Z,14.50
2022-12-05T09:20:45.733Z,15.90
2022-12-05T09:25:49.139Z,19.10
2022-12-05T09:30:52.607Z,22.70
2022-12-05T09:35:56.034Z,18.50
2022-12-05T09:40:59.555Z,17.20
2022-12-05T09:46:03.008Z,15.50
2022-12-05T09:51:06.506Z,21.50
2022-12-05T09:56:09.946Z,16.60
2022-12-05T10:01:13.667Z,15.80
2022-12-05T10:06:17.243Z,15.30
2022-12-05T10:11:20.684Z,15.60
2022-12-05T10:16:24.217Z,13.20
2022-12-05T10:21:27.691Z,20.20
2022-12-05T10:26:31.331Z,17.40
2022-12-05T10:31:34.864Z,15.80
2022-12-05T10:36:38.332Z,16.40
2022-12-05T10:41:41.736Z,18.70
2022-12-05T10:46:45.218Z,17.00
2022-12-05T10:51:48.715Z,14.40
2022-12-05T10:56:52.180Z,17.20
2022-12-05T11:01:56.185Z,14.00
2022-12-05T11:07:00.577Z,15.60
2022-12-05T11:12:04.005Z,16.10
2022-12-05T11:17:07.441Z,14.40
2022-12-05T11:22:10.858Z,14.90
2022-12-05T11:27:14.260Z,16.70
2022-12-05T11:32:17.680Z,17.60
2022-12-05T11:37:21.055Z,14.40
2022-12-05T11:42:24.436Z,16.40
2022-12-05T11:47:27.893Z,17.70
2022-12-05T11:52:34.706Z,18.60
2022-12-05T11:57:40.843Z,17.60
2022-12-05T12:02:44.993Z,17.50
2022-12-05T12:07:48.721Z,18.40
2022-12-05T12:12:52.168Z,18.70
2022-12-05T12:17:55.530Z,24.20
2022-12-05T12:22:58.916Z,15.20
2022-12-05T12:28:05.235Z,16.50
2022-12-05T12:33:08.765Z,17.10
2022-12-05T12:38:12.271Z,18.00
2022-12-05T12:43:31.192Z,18.70
2022-12-05T12:48:39.116Z,17.10
2022-12-05T12:53:42.504Z,17.30
2022-12-05T12:58:45.941Z,16.20
2022-12-05T13:03:51.764Z,37.00
2022-12-05T13:08:55.406Z,23.80
2022-12-05T13:13:59.302Z,25.80
2022-12-05T13:19:02.670Z,25.30
2022-12-05T13:24:06.120Z,19.00
2022-12-05T13:29:09.609Z,21.90
2022-12-05T13:34:13.016Z,20.30
2022-12-05T13:39:33.843Z,19.00
2022-12-05T13:44:37.298Z,21.80
2022-12-05T13:49:40.759Z,22.80
2022-12-05T13:54:44.379Z,20.40
2022-12-05T13:59:47.746Z,21.50
2022-12-05T14:04:54.035Z,20.20
2022-12-05T14:09:57.709Z,22.70
2022-12-05T14:15:01.646Z,26.90
2022-12-05T14:20:05.207Z,34.70
2022-12-05T14:25:08.640Z,38.30
2022-12-05T14:30:12.078Z,35.40
2022-12-05T14:35:15.507Z,33.90
2022-12-05T14:40:18.977Z,32.40
2022-12-05T14:45:22.492Z,32.70
2022-12-05T14:50:25.902Z,29.80
2022-12-05T14:55:29.364Z,28.70
2022-12-05T15:00:32.771Z,30.60
2022-12-05T15:05:36.184Z,32.50
2022-12-05T15:10:39.632Z,31.20
2022-12-05T15:15:43.085Z,29.40
2022-12-05T15:20:47.064Z,20.40
2022-12-05T15:25:54.555Z,26.10
2022-12-05T15:31:00.624Z,33.80
2022-12-05T15:36:04.141Z,29.90
2022-12-05T15:41:07.682Z,32.10
2022-12-05T15:46:11.133Z,29.50
2022-12-05T15:51:14.572Z,32.30
2022-12-05T15:56:17.988Z,26.80
2022-12-05T16:01:21.669Z,30.20
2022-12-05T16:06:25.246Z,29.50
2022-12-05T16:11:28.692Z,28.50
2022-12-05T16:21:56.376Z,30.40
2022-12-05T16:26:59.746Z,30.00
2022-12-05T16:32:03.187Z,28.30
2022-12-05T16:37:08.124Z,27.30
2022-12-05T16:42:13.774Z,28.90
2022-12-05T16:47:17.352Z,29.10
2022-12-05T16:52:20.877Z,27.50
2022-12-05T16:57:24.292Z,30.50
2022-12-05T17:02:27.804Z,30.30
2022-12-05T17:07:34.002Z,33.60
2022-12-05T17:12:37.757Z,29.90
2022-12-05T17:17:41.149Z,30.80
2022-12-05T17:22:44.577Z,28.60
2022-12-05T17:27:47.959Z,32.60
2022-12-05T17:32:51.353Z,28.90
2022-12-05T17:37:54.708Z,28.80
2022-12-05T17:42:58.190Z,30.00
2022-12-05T17:48:01.559Z,31.00
2022-12-05T17:53:07.460Z,34.70
2022-12-05T18:03:32.008Z,32.30
2022-12-05T18:08:39.495Z,35.20
2022-12-05T18:13:42.859Z,32.80
2022-12-05T18:18:46.598Z,34.80
2022-12-05T18:23:49.971Z,37.20
2022-12-05T18:28:54.815Z,35.80
2022-12-05T18:33:58.223Z,36.70
2022-12-05T18:39:01.621Z,35.80
2022-12-05T18:44:05.129Z,37.50
2022-12-05T18:49:08.735Z,39.00
2022-12-05T18:54:12.118Z,37.40
2022-12-05T18:59:15.548Z,36.40
2022-12-05T19:04:18.919Z,37.90
2022-12-05T19:09:22.340Z,37.90
2022-12-05T19:14:25.756Z,38.30
2022-12-05T19:19:29.182Z,42.60
2022-12-05T19:24:32.646Z,39.50
2022-12-05T19:29:36.052Z,38.80
2022-12-05T19:34:39.485Z,41.80
2022-12-05T19:39:43.251Z,38.40
2022-12-05T19:44:46.698Z,45.20
2022-12-05T19:49:50.392Z,42.60
2022-12-05T19:54:53.853Z,44.30
2022-12-05T19:59:57.612Z,47.20
2022-12-05T20:05:01.190Z,46.80
2022-12-05T20:10:04.591Z,122.40
2022-12-05T20:15:08.236Z,154.10
2022-12-05T20:20:11.595Z,193.10
2022-12-05T20:25:15.025Z,145.60
2022-12-05T20:30:18.418Z,134.00
2022-12-05T20:35:24.194Z,118.20
2022-12-05T20:40:28.032Z,121.10
2022-12-05T20:45:31.414Z,107.80
2022-12-05T20:50:34.840Z,106.10
2022-12-05T20:55:38.456Z,104.80
2022-12-05T21:00:43.533Z,99.70
2022-12-05T21:05:46.990Z,102.00
2022-12-05T21:10:50.421Z,102.10
2022-12-05T21:15:53.921Z,102.60
2022-12-05T21:20:57.650Z,99.70
2022-12-05T21:26:01.031Z,95.00
2022-12-05T21:31:04.440Z,98.80
2022-12-05T21:36:07.865Z,96.70
2022-12-05T21:41:11.956Z,93.50
2022-12-05T21:46:15.371Z,85.80
2022-12-05T21:51:18.854Z,88.90
2022-12-05T21:56:22.879Z,87.70
2022-12-05T22:01:26.465Z,81.90
2022-12-05T22:06:29.960Z,84.30
2022-12-05T22:11:33.454Z,90.00
2022-12-05T22:16:36.918Z,87.20
2022-12-05T22:21:40.353Z,82.10
2022-12-05T22:26:43.754Z,81.10
2022-12-05T22:31:47.279Z,79.90
2022-12-05T22:36:51.716Z,80.50
2022-12-05T22:41:55.129Z,80.70
2022-12-05T22:46:58.638Z,78.50
2022-12-05T22:52:02.145Z,74.70
2022-12-05T22:57:05.510Z,77.20
2022-12-05T23:02:08.906Z,73.30
2022-12-05T23:07:12.330Z,76.70
2022-12-05T23:12:15.812Z,77.30
2022-12-05T23:17:19.217Z,70.70
2022-12-05T23:22:22.581Z,70.30
2022-12-05T23:27:26.073Z,68.50
2022-12-05T23:32:29.464Z,69.90
2022-12-05T23:37:32.855Z,66.40
2022-12-05T23:42:36.235Z,65.40
2022-12-05T23:47:39.723Z,66.00
2022-12-05T23:52:43.122Z,66.80
2022-12-05T23:57:46.471Z,69.70
